Terminal Aerodrome Forecast
Issued by NWS Springfield, MO

Home | Current Version | Previous Version | Text Only | Print | Product List | Glossary On
Versions: 1 2 3 4 5 6 7 8 9 10 11 12 13 14 15 16 17 18 19 20 21 22 23 24 25 26 27 28 29 30 31
679
FTUS43 KSGF 241721
TAFSGF
TAF
KSGF 241721Z 2418/2518 33015G25KT P6SM VCTS SCT020 BKN080CB
      TEMPO 2419/2422 1SM TSRA OVC020CB
     FM250000 16009KT P6SM BKN150
     FM251000 17009KT 5SM BR VCTS SCT030 BKN110CB
     FM251500 18012KT P6SM VCSH BKN020
     FM251700 19013KT P6SM VCSH BKN040=

USA.gov is the U.S. government's official web portal to all federal, state and local government web resources and services.